Terminal Aerodrome Forecast
Issued by NWS Bismarck, ND

Home | Current Version | Previous Version | Graphics & Text | Print | Product List | Glossary On
Versions: 1 2 3 4 5 6 7 8 9 10 11 12 13 14 15 16 17 18 19
172
FTUS43 KBIS 070525
TAFBIS
TAF
KBIS 070525Z 0706/0806 30024G34KT P6SM SCT060 BKN110 WS010/33035KT
     FM071000 30027G40KT P6SM SCT100
     FM071500 31025G38KT 6SM -SHSN BLSN OVC050
     FM071800 32034G52KT 5SM -SHSN BLSN OVC020
     FM072200 32035G49KT P6SM OVC015=

USA.gov is the U.S. government's official web portal to all federal, state and local government web resources and services.